createdAt,value
2017-05-31T00:00:58.975Z,18.00
2017-05-31T00:03:27.937Z,18.00
2017-05-31T00:05:56.995Z,18.00
2017-05-31T00:08:31.166Z,18.00
2017-05-31T00:11:00.164Z,18.00
2017-05-31T00:13:29.129Z,18.00
2017-05-31T00:15:58.326Z,17.90
2017-05-31T00:18:27.335Z,17.90
2017-05-31T00:20:56.313Z,17.90
2017-05-31T00:23:28.386Z,17.90
2017-05-31T00:25:57.509Z,17.80
2017-05-31T00:28:26.788Z,17.70
2017-05-31T00:30:55.777Z,17.60
2017-05-31T00:33:24.661Z,17.60
2017-05-31T00:35:53.979Z,17.60
2017-05-31T00:38:22.970Z,17.60
2017-05-31T00:40:51.887Z,17.60
2017-05-31T00:43:21.217Z,17.60
2017-05-31T00:45:50.192Z,17.50
2017-05-31T00:48:19.188Z,17.50
2017-05-31T00:50:48.435Z,17.60
2017-05-31T00:53:17.404Z,17.60
2017-05-31T00:55:46.306Z,17.70
2017-05-31T00:58:14.902Z,17.70
2017-05-31T01:00:43.892Z,17.70
2017-05-31T01:03:12.865Z,17.80
2017-05-31T01:05:42.131Z,17.80
2017-05-31T01:08:11.109Z,17.70
2017-05-31T01:10:40.074Z,17.70
2017-05-31T01:13:09.364Z,17.70
2017-05-31T01:15:38.330Z,17.70
2017-05-31T01:18:07.312Z,17.80
2017-05-31T01:20:36.644Z,17.70
2017-05-31T01:23:05.593Z,17.70
2017-05-31T01:25:34.581Z,17.70
2017-05-31T01:28:03.921Z,17.70
2017-05-31T01:30:32.912Z,17.70
2017-05-31T01:33:01.899Z,17.70
2017-05-31T01:35:31.117Z,17.50
2017-05-31T01:38:00.194Z,17.50
2017-05-31T01:40:29.201Z,17.50
2017-05-31T01:42:58.546Z,17.60
2017-05-31T01:45:27.533Z,17.60
2017-05-31T01:47:56.487Z,17.70
2017-05-31T01:50:25.763Z,17.70
2017-05-31T01:52:54.723Z,17.70
2017-05-31T01:55:23.701Z,17.70
2017-05-31T01:57:53.043Z,17.70
2017-05-31T02:00:21.999Z,17.70
2017-05-31T02:02:50.969Z,17.70
2017-05-31T02:05:20.252Z,17.60
2017-05-31T02:07:48.467Z,17.60
2017-05-31T02:10:17.457Z,17.60
2017-05-31T02:12:46.770Z,17.50
2017-05-31T02:15:15.732Z,17.50
2017-05-31T02:17:44.739Z,17.60
2017-05-31T02:20:14.059Z,17.60
2017-05-31T02:22:43.089Z,17.60
2017-05-31T02:25:11.988Z,17.60
2017-05-31T02:27:41.192Z,17.60
2017-05-31T02:30:10.205Z,17.60
2017-05-31T02:32:39.181Z,17.60
2017-05-31T02:35:08.520Z,17.60
2017-05-31T02:37:37.491Z,17.60
2017-05-31T02:40:06.474Z,17.60
2017-05-31T02:42:35.703Z,17.60
2017-05-31T02:45:04.721Z,17.60
2017-05-31T02:47:33.723Z,17.60
2017-05-31T02:50:03.087Z,17.60
2017-05-31T02:52:32.066Z,17.60
2017-05-31T02:55:01.061Z,17.70
2017-05-31T02:57:30.272Z,17.70
2017-05-31T02:59:59.280Z,17.70
2017-05-31T03:02:28.275Z,17.80
2017-05-31T03:04:57.541Z,17.80
2017-05-31T03:07:26.554Z,17.80
2017-05-31T03:09:55.574Z,17.80
2017-05-31T03:12:24.818Z,17.80
2017-05-31T03:14:53.814Z,17.90
2017-05-31T03:17:22.860Z,17.90
2017-05-31T03:19:52.117Z,17.80
2017-05-31T03:22:21.103Z,17.90
2017-05-31T03:24:50.068Z,17.90
2017-05-31T03:27:19.281Z,17.90
2017-05-31T03:29:48.257Z,18.00
2017-05-31T03:32:17.234Z,18.00
2017-05-31T03:34:46.437Z,18.00
2017-05-31T03:37:15.404Z,18.00
2017-05-31T03:39:44.370Z,18.00
2017-05-31T03:42:12.943Z,18.00
2017-05-31T03:44:41.916Z,18.10
2017-05-31T03:47:10.900Z,18.20
2017-05-31T03:49:40.097Z,18.40
2017-05-31T03:52:09.077Z,18.60
2017-05-31T03:54:38.015Z,18.70
2017-05-31T03:57:07.270Z,18.80
2017-05-31T03:59:36.237Z,18.70
2017-05-31T04:02:05.227Z,18.70
2017-05-31T04:04:34.595Z,18.70
2017-05-31T04:07:03.575Z,18.60
2017-05-31T04:09:32.543Z,18.50
2017-05-31T04:12:01.836Z,18.50
2017-05-31T04:14:30.818Z,18.50
2017-05-31T04:16:59.807Z,18.50
2017-05-31T04:19:29.017Z,18.50
2017-05-31T04:21:57.979Z,18.50
2017-05-31T04:24:26.937Z,18.50
2017-05-31T04:26:56.149Z,18.50
2017-05-31T04:29:25.109Z,18.40
2017-05-31T04:31:54.122Z,18.30
2017-05-31T04:34:23.378Z,18.40
2017-05-31T04:36:52.341Z,18.40
2017-05-31T04:39:21.309Z,18.40
2017-05-31T04:41:50.515Z,18.40
2017-05-31T04:44:19.483Z,18.30
2017-05-31T04:46:48.469Z,18.30
2017-05-31T04:49:17.723Z,18.20
2017-05-31T04:51:46.693Z,18.10
2017-05-31T04:54:15.675Z,18.10
2017-05-31T04:56:45.036Z,18.20
2017-05-31T04:59:14.031Z,18.30
2017-05-31T05:01:43.013Z,18.40
2017-05-31T05:04:12.242Z,18.50
2017-05-31T05:06:41.258Z,18.50
2017-05-31T05:09:10.270Z,18.60
2017-05-31T05:11:39.499Z,18.70
2017-05-31T05:14:08.473Z,18.80
2017-05-31T05:16:37.459Z,18.80
2017-05-31T05:19:06.673Z,18.80
2017-05-31T05:21:35.646Z,18.90
2017-05-31T05:24:04.641Z,19.00
2017-05-31T05:26:33.856Z,19.00
2017-05-31T05:29:02.846Z,19.00
2017-05-31T05:31:31.810Z,19.00
2017-05-31T05:34:01.109Z,19.10
2017-05-31T05:36:30.034Z,19.10
2017-05-31T05:38:58.994Z,19.10
2017-05-31T05:41:28.226Z,19.10
2017-05-31T05:43:57.189Z,19.10
2017-05-31T05:46:26.162Z,19.20
2017-05-31T05:48:55.482Z,19.10
2017-05-31T05:51:24.451Z,19.10
2017-05-31T05:53:53.419Z,19.10
2017-05-31T05:56:22.649Z,19.10
2017-05-31T05:58:51.611Z,19.10
2017-05-31T06:01:20.591Z,19.10
2017-05-31T06:03:49.827Z,18.90
2017-05-31T06:06:18.799Z,18.90
2017-05-31T06:08:47.765Z,18.90
2017-05-31T06:11:16.989Z,18.90
2017-05-31T06:13:45.980Z,19.00
2017-05-31T06:16:14.965Z,19.10
2017-05-31T06:18:44.182Z,19.10
2017-05-31T06:21:13.181Z,19.00
2017-05-31T06:23:42.160Z,19.00
2017-05-31T06:26:11.379Z,19.10
2017-05-31T06:28:40.357Z,19.00
2017-05-31T06:31:09.339Z,19.10
2017-05-31T06:33:38.598Z,19.10
2017-05-31T06:36:07.563Z,19.10
2017-05-31T06:38:35.737Z,19.10
2017-05-31T06:41:05.104Z,19.10
2017-05-31T06:43:33.980Z,19.10
2017-05-31T06:46:02.215Z,19.10
2017-05-31T06:48:31.453Z,19.10
2017-05-31T06:51:00.442Z,19.10
2017-05-31T06:53:29.396Z,19.20
2017-05-31T06:55:58.588Z,19.20
2017-05-31T06:58:27.565Z,19.20
2017-05-31T07:00:56.545Z,19.20
2017-05-31T07:03:25.750Z,19.20
2017-05-31T07:05:54.726Z,19.30
2017-05-31T07:08:23.692Z,19.50
2017-05-31T07:10:52.972Z,19.70
2017-05-31T07:13:21.962Z,19.80
2017-05-31T07:15:50.927Z,19.90
2017-05-31T07:18:20.264Z,19.90
2017-05-31T07:20:49.240Z,20.00
2017-05-31T07:23:18.215Z,20.10
2017-05-31T07:25:47.461Z,20.10
2017-05-31T07:28:16.437Z,20.20
2017-05-31T07:30:45.370Z,20.30
2017-05-31T07:33:14.615Z,20.30
2017-05-31T07:35:43.585Z,20.40
2017-05-31T07:38:12.564Z,20.40
2017-05-31T07:40:41.802Z,20.40
2017-05-31T07:43:10.781Z,20.40
2017-05-31T07:45:39.762Z,20.40
2017-05-31T07:48:08.989Z,20.40
2017-05-31T07:50:37.937Z,20.40
2017-05-31T07:53:06.924Z,20.50
2017-05-31T07:55:36.293Z,20.60
2017-05-31T07:58:05.261Z,20.70
2017-05-31T08:00:34.232Z,20.80
2017-05-31T08:03:03.462Z,20.90
2017-05-31T08:05:31.689Z,20.90
2017-05-31T08:08:00.596Z,21.10
2017-05-31T08:10:29.912Z,21.20
2017-05-31T08:12:58.885Z,21.30
2017-05-31T08:15:27.780Z,21.40
2017-05-31T08:17:57.123Z,21.30
2017-05-31T08:20:26.098Z,21.40
2017-05-31T08:22:54.300Z,21.40
2017-05-31T08:25:23.566Z,21.50
2017-05-31T08:27:52.534Z,21.40
2017-05-31T08:30:21.505Z,21.40
2017-05-31T08:32:50.755Z,21.50
2017-05-31T08:35:19.723Z,21.50
2017-05-31T08:37:48.710Z,21.50
2017-05-31T08:40:17.860Z,21.40
2017-05-31T08:42:46.861Z,21.60
2017-05-31T08:45:15.829Z,21.70
2017-05-31T08:47:45.095Z,21.90
2017-05-31T08:50:14.083Z,21.90
2017-05-31T08:52:43.053Z,22.00
2017-05-31T08:55:12.287Z,22.20
2017-05-31T08:57:41.298Z,22.30
2017-05-31T09:00:10.278Z,22.40
2017-05-31T09:02:39.577Z,22.40
2017-05-31T09:05:07.798Z,22.40
2017-05-31T09:07:36.758Z,22.40
2017-05-31T09:10:06.010Z,22.50
2017-05-31T09:12:34.991Z,22.40
2017-05-31T09:15:04.385Z,22.50
2017-05-31T09:17:33.653Z,22.50
2017-05-31T09:20:02.651Z,22.50
2017-05-31T09:22:31.643Z,22.60
2017-05-31T09:25:00.897Z,22.70
2017-05-31T09:27:29.870Z,22.90
2017-05-31T09:29:58.857Z,23.00
2017-05-31T09:32:28.105Z,23.00
2017-05-31T09:34:57.111Z,23.00
2017-05-31T09:37:26.083Z,23.10
2017-05-31T09:39:55.337Z,23.50
2017-05-31T09:42:24.320Z,23.90
2017-05-31T09:44:53.297Z,24.10
2017-05-31T09:47:22.526Z,24.10
2017-05-31T09:49:51.495Z,24.00
2017-05-31T09:52:20.471Z,23.80
2017-05-31T09:54:49.700Z,23.80
2017-05-31T09:57:18.684Z,23.80
2017-05-31T09:59:47.674Z,23.90
2017-05-31T10:02:16.980Z,24.10
2017-05-31T10:04:45.963Z,24.50
2017-05-31T10:07:15.168Z,24.90
2017-05-31T10:09:44.517Z,25.30
2017-05-31T10:12:13.500Z,25.70
2017-05-31T10:14:42.517Z,26.10
2017-05-31T10:17:11.845Z,26.30
2017-05-31T10:19:40.827Z,26.40
2017-05-31T10:22:09.799Z,26.50
2017-05-31T10:24:39.109Z,26.70
2017-05-31T10:27:08.069Z,26.80
2017-05-31T10:29:37.055Z,27.00
2017-05-31T10:32:06.295Z,27.40
2017-05-31T10:34:35.270Z,27.80
2017-05-31T10:37:04.303Z,27.90
2017-05-31T10:39:33.595Z,28.00
2017-05-31T10:42:02.580Z,28.20
2017-05-31T10:44:31.554Z,28.40
2017-05-31T10:47:00.932Z,28.30
2017-05-31T10:49:29.874Z,28.50
2017-05-31T10:51:58.877Z,28.70
2017-05-31T10:54:28.051Z,29.00
2017-05-31T10:56:57.073Z,29.30
2017-05-31T10:59:26.055Z,29.50
2017-05-31T11:01:54.608Z,29.50
2017-05-31T11:04:23.608Z,29.80
2017-05-31T11:06:52.594Z,29.80
2017-05-31T11:09:21.871Z,29.90
2017-05-31T11:11:50.908Z,30.10
2017-05-31T11:14:19.865Z,30.30
2017-05-31T11:16:49.066Z,30.30
2017-05-31T11:19:18.054Z,30.20
2017-05-31T11:21:47.042Z,30.10
2017-05-31T11:24:16.357Z,30.00
2017-05-31T11:26:45.357Z,30.10
2017-05-31T11:29:14.264Z,30.50
2017-05-31T11:31:43.543Z,30.90
2017-05-31T11:34:12.509Z,31.20
2017-05-31T11:36:41.491Z,31.10
2017-05-31T11:39:10.709Z,30.60
2017-05-31T11:41:39.678Z,30.10
2017-05-31T11:44:08.693Z,29.90
2017-05-31T11:46:37.171Z,29.90
2017-05-31T11:49:06.162Z,30.50
2017-05-31T11:51:35.146Z,30.50
2017-05-31T11:54:04.474Z,30.20
2017-05-31T11:56:33.470Z,30.00
2017-05-31T11:59:02.441Z,29.90
2017-05-31T12:01:31.723Z,30.10
2017-05-31T12:04:00.717Z,30.10
2017-05-31T12:12:29.741Z,29.70
2017-05-31T12:14:58.705Z,30.50
2017-05-31T12:17:26.912Z,30.50
2017-05-31T12:19:56.174Z,31.40
2017-05-31T12:22:25.129Z,31.40
2017-05-31T12:24:54.087Z,31.30
2017-05-31T12:27:23.396Z,30.70
2017-05-31T12:29:52.370Z,29.90
2017-05-31T12:32:21.342Z,29.60
2017-05-31T12:34:50.592Z,29.80
2017-05-31T12:37:19.578Z,30.40
2017-05-31T12:39:48.560Z,31.00
2017-05-31T12:42:17.782Z,31.40
2017-05-31T12:44:46.749Z,31.60
2017-05-31T12:47:15.728Z,31.40
2017-05-31T12:49:45.022Z,31.00
2017-05-31T12:52:14.021Z,30.60
2017-05-31T12:54:42.994Z,30.10
2017-05-31T12:57:12.247Z,29.70
2017-05-31T12:59:41.252Z,29.20
2017-05-31T13:02:10.230Z,28.70
2017-05-31T13:04:39.483Z,28.30
2017-05-31T13:07:08.468Z,28.50
2017-05-31T13:09:37.434Z,28.90
2017-05-31T13:12:06.693Z,29.60
2017-05-31T13:14:35.006Z,29.60
2017-05-31T13:17:03.980Z,30.50
2017-05-31T13:19:33.241Z,30.30
2017-05-31T13:22:02.242Z,29.90
2017-05-31T13:24:31.244Z,29.50
2017-05-31T13:27:00.485Z,29.50
2017-05-31T13:29:29.479Z,30.20
2017-05-31T13:31:58.449Z,31.10
2017-05-31T13:34:27.808Z,31.90
2017-05-31T13:36:56.786Z,32.70
2017-05-31T13:39:25.969Z,33.10
2017-05-31T13:41:54.457Z,33.00
2017-05-31T13:44:23.443Z,34.00
2017-05-31T13:46:52.401Z,34.30
2017-05-31T13:49:21.653Z,34.60
2017-05-31T13:51:50.649Z,34.70
2017-05-31T13:54:19.662Z,34.90
2017-05-31T13:56:48.928Z,35.10
2017-05-31T13:59:17.951Z,35.20
2017-05-31T14:01:46.916Z,35.20
2017-05-31T14:04:16.211Z,34.90
2017-05-31T14:06:45.216Z,34.30
2017-05-31T14:09:14.208Z,34.00
2017-05-31T14:11:43.480Z,33.40
2017-05-31T14:14:12.463Z,32.80
2017-05-31T14:16:41.453Z,32.70
2017-05-31T14:19:10.773Z,32.90
2017-05-31T14:21:39.763Z,33.20
2017-05-31T14:24:08.736Z,33.40
2017-05-31T14:26:38.148Z,33.50
2017-05-31T14:29:07.179Z,33.60
2017-05-31T14:31:36.173Z,33.60
2017-05-31T14:34:05.451Z,33.60
2017-05-31T14:36:34.419Z,33.60
2017-05-31T14:39:03.395Z,33.50
2017-05-31T14:41:32.655Z,33.50
2017-05-31T14:44:01.611Z,33.60
2017-05-31T14:46:30.603Z,33.30
2017-05-31T14:48:59.798Z,33.20
2017-05-31T14:51:28.802Z,33.10
2017-05-31T14:53:57.796Z,33.10
2017-05-31T14:56:27.062Z,32.90
2017-05-31T14:58:56.061Z,32.90
2017-05-31T15:01:25.070Z,32.80
2017-05-31T15:03:53.565Z,32.80
2017-05-31T15:06:22.530Z,33.10
2017-05-31T15:08:51.502Z,33.20
2017-05-31T15:11:20.810Z,33.30
2017-05-31T15:13:49.785Z,33.00
2017-05-31T15:16:18.719Z,32.90
2017-05-31T15:18:47.965Z,32.90
2017-05-31T15:21:16.947Z,33.10
2017-05-31T15:23:45.146Z,33.10
2017-05-31T15:26:14.351Z,33.10
2017-05-31T15:28:43.308Z,32.90
2017-05-31T15:31:12.360Z,32.90
2017-05-31T15:33:41.588Z,32.70
2017-05-31T15:36:10.556Z,32.40
2017-05-31T15:38:39.540Z,32.20
2017-05-31T15:41:08.816Z,32.20
2017-05-31T15:43:37.823Z,32.10
2017-05-31T15:46:06.803Z,32.20
2017-05-31T15:48:36.108Z,32.30
2017-05-31T15:51:05.090Z,32.20
2017-05-31T15:53:34.048Z,31.70
2017-05-31T15:56:03.238Z,31.30
2017-05-31T15:58:32.249Z,31.30
2017-05-31T16:01:01.298Z,31.40
2017-05-31T16:03:47.039Z,31.50
2017-05-31T16:06:16.009Z,31.50
2017-05-31T16:08:44.960Z,31.50
2017-05-31T16:11:14.191Z,31.50
2017-05-31T16:13:43.159Z,31.30
2017-05-31T16:16:12.128Z,30.70
2017-05-31T16:18:41.838Z,30.30
2017-05-31T16:21:10.809Z,29.90
2017-05-31T16:23:39.780Z,29.50
2017-05-31T16:26:09.006Z,29.30
2017-05-31T16:28:37.957Z,29.10
2017-05-31T16:31:06.924Z,29.10
2017-05-31T16:33:36.119Z,29.10
2017-05-31T16:36:05.013Z,29.10
2017-05-31T16:38:33.990Z,29.00
2017-05-31T16:41:03.201Z,28.90
2017-05-31T16:43:32.174Z,28.70
2017-05-31T16:46:01.159Z,28.50
2017-05-31T16:48:30.150Z,28.40
2017-05-31T16:50:59.149Z,28.30
2017-05-31T16:53:28.388Z,28.20
2017-05-31T16:55:57.363Z,28.20
2017-05-31T16:58:26.242Z,28.10
2017-05-31T17:00:55.563Z,27.90
2017-05-31T17:03:24.550Z,27.60
2017-05-31T17:05:53.437Z,27.50
2017-05-31T17:08:22.756Z,27.30
2017-05-31T17:10:51.757Z,27.20
2017-05-31T17:13:20.636Z,27.10
2017-05-31T17:15:50.032Z,27.00
2017-05-31T17:18:18.994Z,26.90
2017-05-31T17:20:47.942Z,26.80
2017-05-31T17:23:17.223Z,26.60
2017-05-31T17:25:46.250Z,26.50
2017-05-31T17:28:15.238Z,26.30
2017-05-31T17:30:44.458Z,26.10
2017-05-31T17:33:12.706Z,26.10
2017-05-31T17:35:41.675Z,25.90
2017-05-31T17:38:10.873Z,25.90
2017-05-31T17:40:39.891Z,25.90
2017-05-31T17:43:08.867Z,25.90
2017-05-31T17:45:38.224Z,25.80
2017-05-31T17:48:06.416Z,25.70
2017-05-31T17:50:35.420Z,25.60
2017-05-31T17:53:04.667Z,25.50
2017-05-31T17:55:33.625Z,25.40
2017-05-31T17:58:02.606Z,25.40
2017-05-31T18:00:31.976Z,25.30
2017-05-31T18:03:01.010Z,25.20
2017-05-31T18:05:30.025Z,25.10
2017-05-31T18:07:59.296Z,25.00
2017-05-31T18:10:28.249Z,25.00
2017-05-31T18:12:57.228Z,24.90
2017-05-31T18:15:26.447Z,24.90
2017-05-31T18:17:55.467Z,24.90
2017-05-31T18:20:24.426Z,24.90
2017-05-31T18:22:53.779Z,24.80
2017-05-31T18:25:22.835Z,24.80
2017-05-31T18:27:51.818Z,24.80
2017-05-31T18:30:21.102Z,24.70
2017-05-31T18:32:50.061Z,24.70
2017-05-31T18:35:19.054Z,24.70
2017-05-31T18:37:48.625Z,24.70
2017-05-31T18:40:17.634Z,24.60
2017-05-31T18:42:46.603Z,24.60
2017-05-31T18:45:15.052Z,24.60
2017-05-31T18:47:44.037Z,24.50
2017-05-31T18:50:13.033Z,24.50
2017-05-31T18:52:42.163Z,24.40
2017-05-31T18:55:11.206Z,24.40
2017-05-31T18:57:40.212Z,24.30
2017-05-31T19:00:09.480Z,24.30
2017-05-31T19:02:38.491Z,24.30
2017-05-31T19:05:07.464Z,24.20
2017-05-31T19:07:36.707Z,24.10
2017-05-31T19:10:05.738Z,24.10
2017-05-31T19:12:34.710Z,24.00
2017-05-31T19:15:03.966Z,24.00
2017-05-31T19:17:32.927Z,24.00
2017-05-31T19:20:01.902Z,23.90
2017-05-31T19:22:31.170Z,23.90
2017-05-31T19:25:00.140Z,23.80
2017-05-31T19:27:29.153Z,23.70
2017-05-31T19:29:58.627Z,23.70
2017-05-31T19:32:27.611Z,23.60
2017-05-31T19:34:56.609Z,23.60
2017-05-31T19:37:25.848Z,23.50
2017-05-31T19:39:54.858Z,23.40
2017-05-31T19:42:23.830Z,23.40
2017-05-31T19:44:53.087Z,23.30
2017-05-31T19:47:22.083Z,23.20
2017-05-31T19:49:51.072Z,23.20
2017-05-31T19:52:20.371Z,23.10
2017-05-31T19:54:49.346Z,23.00
2017-05-31T19:57:18.285Z,22.90
2017-05-31T19:59:47.559Z,22.80
2017-05-31T20:02:16.544Z,22.70
2017-05-31T20:04:46.060Z,22.60
2017-05-31T20:07:15.315Z,22.50
2017-05-31T20:09:44.292Z,22.40
2017-05-31T20:12:13.286Z,22.30
2017-05-31T20:14:42.597Z,22.20
2017-05-31T20:17:11.586Z,22.10
2017-05-31T20:19:40.583Z,22.00
2017-05-31T20:22:09.820Z,21.90
2017-05-31T20:24:38.800Z,21.90
2017-05-31T20:27:07.805Z,21.80
2017-05-31T20:29:37.076Z,21.70
2017-05-31T20:32:05.978Z,21.70
2017-05-31T20:34:35.005Z,21.70
2017-05-31T20:37:04.379Z,21.60
2017-05-31T20:39:33.272Z,21.50
2017-05-31T20:42:02.282Z,21.50
2017-05-31T20:44:31.546Z,21.40
2017-05-31T20:47:00.558Z,21.30
2017-05-31T20:49:29.547Z,21.30
2017-05-31T20:51:58.809Z,21.20
2017-05-31T20:54:27.797Z,21.20
2017-05-31T20:56:56.890Z,21.10
2017-05-31T20:59:26.203Z,21.10
2017-05-31T21:01:55.185Z,21.00
2017-05-31T21:04:24.209Z,20.90
2017-05-31T21:06:53.431Z,20.90
2017-05-31T21:09:22.438Z,20.80
2017-05-31T21:11:51.471Z,20.70
2017-05-31T21:14:20.682Z,20.70
2017-05-31T21:16:49.660Z,20.70
2017-05-31T21:19:18.646Z,20.60
2017-05-31T21:21:47.979Z,20.60
2017-05-31T21:24:16.972Z,20.50
2017-05-31T21:26:45.947Z,20.50
2017-05-31T21:29:15.308Z,20.40
2017-05-31T21:31:44.293Z,20.40
2017-05-31T21:34:13.236Z,20.30
2017-05-31T21:36:42.606Z,20.30
2017-05-31T21:39:35.398Z,20.30
2017-05-31T21:42:04.748Z,20.30
2017-05-31T21:44:33.721Z,20.30
2017-05-31T21:47:02.604Z,20.30
2017-05-31T21:49:31.954Z,20.30
2017-05-31T21:52:00.915Z,20.20
2017-05-31T21:54:29.889Z,20.20
2017-05-31T21:56:59.216Z,20.20
2017-05-31T21:59:28.231Z,20.10
2017-05-31T22:01:57.201Z,20.00
2017-05-31T22:04:26.507Z,20.00
2017-05-31T22:06:55.500Z,19.90
2017-05-31T22:09:24.490Z,19.80
2017-05-31T22:11:53.091Z,19.80
2017-05-31T22:14:22.059Z,19.70
2017-05-31T22:16:51.053Z,19.70
2017-05-31T22:19:20.442Z,19.60
2017-05-31T22:21:49.412Z,19.60
2017-05-31T22:24:18.374Z,19.60
2017-05-31T22:26:47.718Z,19.60
2017-05-31T22:29:16.699Z,19.50
2017-05-31T22:31:45.669Z,19.50
2017-05-31T22:34:14.961Z,19.60
2017-05-31T22:36:43.945Z,19.60
2017-05-31T22:39:12.943Z,19.60
2017-05-31T22:41:42.229Z,19.60
2017-05-31T22:44:11.241Z,19.60
2017-05-31T22:46:40.236Z,19.70
2017-05-31T22:49:09.563Z,19.70
2017-05-31T22:51:38.455Z,19.70
2017-05-31T22:54:07.478Z,19.70
2017-05-31T22:56:36.742Z,19.70
2017-05-31T22:59:05.721Z,19.60
2017-05-31T23:01:34.718Z,19.60
2017-05-31T23:04:04.019Z,19.50
2017-05-31T23:06:32.905Z,19.40
2017-05-31T23:09:01.903Z,19.40
2017-05-31T23:11:31.214Z,19.30
2017-05-31T23:14:00.189Z,19.20
2017-05-31T23:16:29.214Z,19.10
2017-05-31T23:18:58.543Z,19.00
2017-05-31T23:21:27.545Z,18.90
2017-05-31T23:23:56.522Z,18.90
2017-05-31T23:26:25.866Z,18.80
2017-05-31T23:28:54.910Z,18.80
2017-05-31T23:31:23.086Z,18.80
2017-05-31T23:33:52.439Z,18.70
2017-05-31T23:36:21.432Z,18.70
2017-05-31T23:38:50.409Z,18.70
2017-05-31T23:41:19.816Z,18.70
2017-05-31T23:43:48.801Z,18.70
2017-05-31T23:46:17.875Z,18.70
2017-05-31T23:48:47.143Z,18.70
2017-05-31T23:51:16.154Z,18.70
2017-05-31T23:53:45.142Z,18.70
2017-05-31T23:56:14.465Z,18.70
2017-05-31T23:58:43.458Z,18.70
